Time;durP1;ratioP1;P1;durP2;ratioP2;P2;SDS_P1;SDS_P2;PMS_P1;PMS_P2;Temp;Humidity;BMP_temperature;BMP_pressure;BME280_temperature;BME280_humidity;BME280_pressure;Samples;Min_cycle;Max_cycle;Signal;HPM_P1;HPM_P2
2023/05/30 00:01:22;;;;;;;15.93;2.30;;;12.40;95.50;;;;;;5014132;28;20072;-80
2023/05/30 00:03:48;;;;;;;18.40;3.00;;;12.40;95.80;;;;;;5012246;28;20108;-80
2023/05/30 00:06:17;;;;;;;21.77;2.83;;;12.40;96.10;;;;;;5020923;28;20029;-81
2023/05/30 00:08:44;;;;;;;10.80;2.25;;;12.30;96.20;;;;;;5025215;28;20394;-83
2023/05/30 00:11:14;;;;;;;13.85;2.38;;;12.30;96.50;;;;;;5017788;28;20017;-80
2023/05/30 00:13:42;;;;;;;10.38;2.08;;;12.30;96.80;;;;;;5148495;22;20064;-83
2023/05/30 00:16:11;;;;;;;12.15;2.15;;;12.30;97.00;;;;;;5004753;28;20030;-80
2023/05/30 00:18:37;;;;;;;19.33;2.53;;;12.30;97.00;;;;;;4993012;28;20026;-81
2023/05/30 00:21:05;;;;;;;15.85;2.35;;;12.20;97.50;;;;;;4997024;28;20434;-81
2023/05/30 00:23:35;;;;;;;11.23;2.17;;;12.20;97.80;;;;;;4989472;28;20053;-81
2023/05/30 00:26:01;;;;;;;19.60;2.55;;;12.20;98.00;;;;;;4991777;28;20030;-80
2023/05/30 00:28:27;;;;;;;19.88;1.98;;;12.20;98.10;;;;;;4991539;28;20225;-82
2023/05/30 00:30:53;;;;;;;15.40;2.45;;;12.10;98.40;;;;;;4990568;28;20038;-82
2023/05/30 00:33:20;;;;;;;10.27;2.17;;;12.10;98.90;;;;;;4998642;28;20489;-80
2023/05/30 00:35:45;;;;;;;16.90;2.75;;;12.10;99.00;;;;;;4994198;28;20491;-82
2023/05/30 00:38:11;;;;;;;15.38;2.67;;;12.10;99.10;;;;;;4993526;28;20014;-83
2023/05/30 00:40:37;;;;;;;15.50;2.22;;;12.10;99.50;;;;;;4993009;28;20022;-82
2023/05/30 00:43:03;;;;;;;12.07;2.45;;;12.10;99.50;;;;;;4989165;28;20030;-82
2023/05/30 00:45:28;;;;;;;21.05;2.83;;;12.10;99.70;;;;;;4994404;28;20037;-83
2023/05/30 00:50:30;;;;;;;14.02;2.63;;;12.00;99.90;;;;;;5025165;22;20053;-83
2023/05/30 00:52:57;;;;;;;14.57;2.28;;;12.00;99.90;;;;;;5014430;28;20029;-82
2023/05/30 00:55:23;;;;;;;21.80;2.53;;;12.10;99.90;;;;;;5023486;28;20034;-82
2023/05/30 00:57:49;;;;;;;12.85;2.30;;;12.10;99.90;;;;;;5016012;28;20029;-82
2023/05/30 01:00:16;;;;;;;23.38;2.47;;;12.10;99.90;;;;;;5011668;28;20763;-82
2023/05/30 01:02:44;;;;;;;12.93;2.72;;;12.00;99.90;;;;;;5012393;28;20057;-82
2023/05/30 01:05:14;;;;;;;12.15;2.30;;;12.10;99.90;;;;;;5013190;28;20022;-82
2023/05/30 01:07:43;;;;;;;19.05;2.50;;;12.10;99.90;;;;;;5012120;28;20022;-83
2023/05/30 01:10:11;;;;;;;23.48;2.85;;;12.00;99.90;;;;;;5008309;28;20045;-83
2023/05/30 01:12:52;;;;;;;21.00;2.35;;;12.00;99.90;;;;;;5019101;28;20037;-82
2023/05/30 01:15:24;;;;;;;20.35;2.75;;;12.00;99.90;;;;;;5004047;28;20033;-83
2023/05/30 01:18:12;;;;;;;15.25;2.33;;;12.00;99.90;;;;;;5010408;28;20087;-83
2023/05/30 01:20:50;;;;;;;16.95;2.25;;;11.90;99.90;;;;;;5013673;28;20030;-83
2023/05/30 01:23:36;;;;;;;16.35;2.65;;;11.90;99.90;;;;;;5009973;28;20041;-81
2023/05/30 01:26:14;;;;;;;22.05;3.10;;;11.80;99.90;;;;;;5010157;28;20807;-79
2023/05/30 01:28:42;;;;;;;18.15;2.70;;;11.80;99.90;;;;;;5011717;28;20029;-81
2023/05/30 01:31:11;;;;;;;12.70;2.70;;;11.80;99.90;;;;;;5008198;28;20033;-81
2023/05/30 01:33:39;;;;;;;19.25;3.13;;;11.80;99.90;;;;;;5011840;28;20116;-81
2023/05/30 01:36:07;;;;;;;20.05;4.20;;;11.80;99.90;;;;;;5010378;28;20034;-82
2023/05/30 01:38:34;;;;;;;14.00;3.17;;;11.80;99.90;;;;;;5010150;28;20596;-82
2023/05/30 01:41:02;;;;;;;20.55;2.80;;;11.80;99.90;;;;;;5009343;28;20034;-82
2023/05/30 01:43:58;;;;;;;13.65;2.40;;;11.80;99.90;;;;;;5014321;28;20778;-80
2023/05/30 01:46:33;;;;;;;11.75;2.50;;;11.70;99.90;;;;;;5009165;28;20123;-82
2023/05/30 01:49:08;;;;;;;19.25;2.70;;;11.60;99.90;;;;;;5018938;28;20500;-81
2023/05/30 01:52:04;;;;;;;16.65;2.72;;;11.70;99.90;;;;;;5031460;28;20029;-82
2023/05/30 01:54:33;;;;;;;21.08;3.10;;;11.70;99.90;;;;;;5031611;28;20033;-82
2023/05/30 01:57:06;;;;;;;20.15;3.13;;;11.70;99.90;;;;;;5021275;28;20232;-82
2023/05/30 01:59:33;;;;;;;19.95;3.05;;;11.70;99.90;;;;;;5009036;28;20036;-82
2023/05/30 02:02:01;;;;;;;18.13;3.20;;;11.60;99.90;;;;;;5008992;28;20025;-82
2023/05/30 02:04:26;;;;;;;32.17;3.60;;;11.60;99.90;;;;;;5012037;28;20049;-82
2023/05/30 02:06:52;;;;;;;23.05;2.63;;;11.60;99.90;;;;;;5006235;28;20057;-82
2023/05/30 02:09:17;;;;;;;14.15;2.85;;;11.60;99.90;;;;;;5006082;28;20042;-82
2023/05/30 02:11:43;;;;;;;18.60;2.80;;;11.60;99.90;;;;;;5009897;28;20029;-82
2023/05/30 02:14:09;;;;;;;16.27;3.08;;;11.50;99.90;;;;;;5033306;28;20021;-81
2023/05/30 02:16:34;;;;;;;15.60;2.92;;;11.50;99.90;;;;;;5014153;28;20428;-82
2023/05/30 02:19:00;;;;;;;15.98;3.42;;;11.50;99.90;;;;;;5008691;28;20032;-82
2023/05/30 02:21:26;;;;;;;17.30;3.55;;;11.50;99.90;;;;;;5015746;28;20029;-82
2023/05/30 02:23:53;;;;;;;21.42;3.30;;;11.60;99.90;;;;;;5011479;28;20022;-82
2023/05/30 02:26:19;;;;;;;17.48;2.80;;;11.60;99.90;;;;;;5011031;28;20600;-82
2023/05/30 02:28:45;;;;;;;22.67;2.67;;;11.70;99.90;;;;;;5006512;28;20398;-82
2023/05/30 02:31:10;;;;;;;19.75;3.75;;;11.70;99.90;;;;;;5011908;28;20116;-81
2023/05/30 02:33:36;;;;;;;22.60;2.92;;;11.70;99.90;;;;;;5014938;28;20021;-81
2023/05/30 02:36:01;;;;;;;25.55;2.92;;;11.80;99.90;;;;;;5013816;28;20430;-82
2023/05/30 02:38:27;;;;;;;13.73;2.72;;;11.70;99.90;;;;;;5014399;28;20083;-82
2023/05/30 02:40:53;;;;;;;19.33;3.10;;;11.70;99.90;;;;;;5014173;28;20021;-81
2023/05/30 02:43:20;;;;;;;19.67;3.03;;;11.70;99.90;;;;;;5015197;28;20669;-81
2023/05/30 02:45:48;;;;;;;22.25;3.20;;;11.90;99.90;;;;;;5017951;28;20030;-82
2023/05/30 02:48:13;;;;;;;17.98;2.88;;;11.90;99.90;;;;;;5013869;28;20034;-81
2023/05/30 02:50:39;;;;;;;23.88;3.25;;;12.10;99.90;;;;;;5014004;28;20041;-82
2023/05/30 02:53:05;;;;;;;16.73;3.42;;;12.10;99.90;;;;;;5018345;28;20029;-82
2023/05/30 02:55:31;;;;;;;12.98;2.83;;;12.10;99.90;;;;;;5123405;22;20651;-81
2023/05/30 02:57:57;;;;;;;14.13;2.88;;;12.10;99.90;;;;;;4996089;28;20033;-80
2023/05/30 03:00:22;;;;;;;25.33;3.53;;;12.10;99.90;;;;;;5000578;28;20037;-80
2023/05/30 03:02:49;;;;;;;18.95;3.20;;;12.10;99.90;;;;;;4994809;28;20025;-81
2023/05/30 03:05:15;;;;;;;18.13;2.70;;;12.10;99.90;;;;;;4997445;28;20022;-81
2023/05/30 03:07:41;;;;;;;17.63;3.33;;;12.10;99.90;;;;;;5001197;28;20696;-82
2023/05/30 03:10:07;;;;;;;23.85;3.28;;;12.10;99.90;;;;;;4991569;28;20157;-82
2023/05/30 03:12:32;;;;;;;29.92;3.53;;;12.10;99.90;;;;;;5140088;22;20531;-80
2023/05/30 03:14:58;;;;;;;21.55;2.80;;;12.10;99.90;;;;;;5011808;28;20116;-80
2023/05/30 03:17:24;;;;;;;17.73;3.20;;;12.10;99.90;;;;;;5010527;28;20344;-80
2023/05/30 03:19:50;;;;;;;18.90;4.47;;;12.10;99.90;;;;;;5014412;28;20025;-80
2023/05/30 03:22:15;;;;;;;21.98;3.35;;;12.10;99.90;;;;;;5014033;28;20529;-80
2023/05/30 03:24:41;;;;;;;23.55;3.53;;;12.10;99.90;;;;;;5012061;28;20036;-80
2023/05/30 03:27:07;;;;;;;16.88;3.15;;;12.20;99.90;;;;;;5010944;28;20515;-82
2023/05/30 03:29:33;;;;;;;23.73;5.63;;;12.10;99.90;;;;;;5012999;28;20033;-83
2023/05/30 03:31:59;;;;;;;19.88;3.65;;;12.10;99.90;;;;;;5012729;28;20064;-81
2023/05/30 03:34:25;;;;;;;22.35;3.55;;;12.00;99.90;;;;;;5012184;28;20557;-81
2023/05/30 03:36:52;;;;;;;8.38;2.85;;;12.10;99.90;;;;;;5010186;28;20025;-80
2023/05/30 03:39:21;;;;;;;15.68;2.83;;;12.00;99.90;;;;;;5009965;28;20405;-82
2023/05/30 03:41:49;;;;;;;23.40;3.17;;;12.10;99.90;;;;;;5004564;28;20025;-83
2023/05/30 03:44:15;;;;;;;11.32;3.13;;;12.10;99.90;;;;;;5014887;28;20098;-81
2023/05/30 03:46:41;;;;;;;21.30;4.05;;;12.20;99.90;;;;;;5013603;28;20033;-81
2023/05/30 03:49:06;;;;;;;15.07;3.63;;;12.20;99.90;;;;;;5015444;28;20044;-82
2023/05/30 03:51:36;;;;;;;15.40;4.25;;;12.20;99.90;;;;;;5017311;28;20025;-84
2023/05/30 03:54:01;;;;;;;12.82;3.80;;;12.20;99.90;;;;;;5015306;28;20304;-84
2023/05/30 03:56:27;;;;;;;22.65;3.25;;;12.20;99.90;;;;;;5016351;28;20053;-83
2023/05/30 03:58:52;;;;;;;19.77;3.78;;;12.20;99.90;;;;;;5015552;28;20026;-84
2023/05/30 04:01:18;;;;;;;21.63;4.13;;;12.20;99.90;;;;;;5013326;28;20063;-84
2023/05/30 04:03:45;;;;;;;24.10;3.72;;;12.20;99.90;;;;;;5016494;28;20763;-83
2023/05/30 04:06:10;;;;;;;29.20;3.90;;;12.30;99.90;;;;;;5014650;28;20393;-84
2023/05/30 04:08:36;;;;;;;17.20;3.38;;;12.30;99.90;;;;;;5010514;28;20637;-84
2023/05/30 04:11:03;;;;;;;19.45;3.50;;;12.40;99.90;;;;;;5006436;28;20048;-84
2023/05/30 04:13:29;;;;;;;17.70;3.35;;;12.40;99.90;;;;;;5011441;28;20033;-84
2023/05/30 04:15:54;;;;;;;21.70;3.47;;;12.40;99.90;;;;;;5016751;28;20036;-84
2023/05/30 04:18:20;;;;;;;19.42;3.42;;;12.50;99.90;;;;;;5013434;28;20116;-84
2023/05/30 04:20:46;;;;;;;17.05;3.15;;;12.50;99.90;;;;;;5020177;28;20018;-85
2023/05/30 04:23:11;;;;;;;20.15;3.80;;;12.50;99.90;;;;;;5039828;28;20038;-85
2023/05/30 04:25:37;;;;;;;28.10;4.35;;;12.50;99.90;;;;;;5014832;28;20053;-83
2023/05/30 04:28:05;;;;;;;14.02;3.30;;;12.50;99.90;;;;;;5017042;28;20114;-83
2023/05/30 04:30:33;;;;;;;24.88;4.22;;;12.50;99.90;;;;;;5014891;28;20065;-84
2023/05/30 04:32:59;;;;;;;21.23;4.43;;;12.50;99.90;;;;;;5007222;28;20022;-81
2023/05/30 04:35:25;;;;;;;22.52;4.18;;;12.50;99.90;;;;;;5015673;28;20084;-80
2023/05/30 04:37:53;;;;;;;15.05;4.00;;;12.60;99.90;;;;;;5012134;28;20064;-81
2023/05/30 04:40:19;;;;;;;16.95;3.92;;;12.70;99.90;;;;;;5011641;28;20065;-85
2023/05/30 04:42:51;;;;;;;21.20;3.83;;;12.70;99.90;;;;;;5015533;28;20045;-85
2023/05/30 04:45:18;;;;;;;15.10;3.90;;;12.70;99.90;;;;;;5011766;28;20029;-85
2023/05/30 04:47:47;;;;;;;21.25;3.53;;;12.80;99.90;;;;;;5014221;28;20056;-84
2023/05/30 04:50:16;;;;;;;23.55;4.00;;;12.90;99.90;;;;;;5008255;28;20055;-85
2023/05/30 04:52:45;;;;;;;19.33;3.58;;;12.80;99.90;;;;;;5013391;28;20036;-85
2023/05/30 04:55:12;;;;;;;18.58;3.90;;;12.90;99.90;;;;;;5006568;28;20018;-85
2023/05/30 04:57:38;;;;;;;18.42;3.78;;;12.90;99.90;;;;;;5004159;28;20037;-84
2023/05/30 05:00:10;;;;;;;18.48;4.03;;;13.00;99.90;;;;;;5009072;28;20045;-85
2023/05/30 05:02:38;;;;;;;13.90;3.95;;;13.00;99.90;;;;;;5012527;28;20026;-85
2023/05/30 05:05:05;;;;;;;19.52;4.13;;;13.10;99.90;;;;;;5005492;28;20465;-85
2023/05/30 05:07:31;;;;;;;19.73;4.38;;;13.10;99.90;;;;;;5021120;28;20014;-85
2023/05/30 05:09:56;;;;;;;18.27;4.70;;;13.10;99.90;;;;;;5038477;28;20041;-85
2023/05/30 05:12:22;;;;;;;24.85;4.25;;;13.10;99.90;;;;;;5040525;28;20017;-84
2023/05/30 05:14:49;;;;;;;14.43;4.88;;;13.20;99.90;;;;;;5020923;28;20087;-84
2023/05/30 05:17:15;;;;;;;17.95;4.10;;;13.10;99.90;;;;;;5012785;28;20013;-84
2023/05/30 05:19:43;;;;;;;13.30;3.60;;;13.20;99.90;;;;;;5013677;28;20022;-86
2023/05/30 05:22:09;;;;;;;22.45;4.07;;;13.20;99.90;;;;;;5019151;28;20087;-85
2023/05/30 05:24:35;;;;;;;21.88;4.55;;;13.30;99.90;;;;;;5010073;28;20057;-86
2023/05/30 05:27:01;;;;;;;17.10;3.88;;;13.50;99.90;;;;;;5014108;28;20486;-85
2023/05/30 05:29:30;;;;;;;17.02;4.38;;;13.50;99.90;;;;;;5012087;28;20049;-85
2023/05/30 05:31:56;;;;;;;15.95;4.15;;;13.60;99.90;;;;;;5011906;28;20053;-85
2023/05/30 05:34:25;;;;;;;13.75;3.65;;;13.60;99.90;;;;;;5018673;28;20053;-87
2023/05/30 05:36:51;;;;;;;13.82;3.95;;;13.60;99.90;;;;;;5013677;28;20319;-85
2023/05/30 05:39:20;;;;;;;15.50;3.72;;;13.60;99.90;;;;;;5019476;28;20092;-85
2023/05/30 05:41:45;;;;;;;18.63;4.43;;;13.70;99.90;;;;;;5021246;28;20059;-86
2023/05/30 05:44:11;;;;;;;10.13;3.97;;;13.70;99.90;;;;;;5018652;28;20480;-84
2023/05/30 05:46:36;;;;;;;12.98;3.70;;;13.60;99.90;;;;;;5016980;28;20088;-87
2023/05/30 05:49:02;;;;;;;12.25;3.35;;;13.80;99.90;;;;;;5009531;28;20702;-85
2023/05/30 05:51:28;;;;;;;16.63;3.60;;;13.80;99.90;;;;;;5010068;28;20017;-85
2023/05/30 05:53:53;;;;;;;16.70;4.10;;;13.90;99.90;;;;;;5129868;22;20016;-84
2023/05/30 05:56:21;;;;;;;24.73;4.05;;;13.90;99.90;;;;;;5145487;22;20060;-85
2023/05/30 05:58:47;;;;;;;11.55;3.55;;;14.00;99.90;;;;;;5021736;28;20086;-85
2023/05/30 06:01:12;;;;;;;12.98;3.70;;;14.20;99.80;;;;;;5020945;28;20022;-85
2023/05/30 06:03:40;;;;;;;20.17;4.50;;;14.20;99.30;;;;;;5018734;28;20030;-85
2023/05/30 06:06:07;;;;;;;13.85;3.30;;;14.20;99.20;;;;;;5016422;28;20669;-86
2023/05/30 06:08:33;;;;;;;16.55;3.67;;;14.30;99.20;;;;;;5012415;28;20114;-87
2023/05/30 06:10:59;;;;;;;15.63;3.47;;;14.30;99.00;;;;;;5008416;28;20595;-86
2023/05/30 06:13:27;;;;;;;16.77;3.63;;;14.20;98.90;;;;;;5010011;28;20680;-86
2023/05/30 06:15:52;;;;;;;13.95;3.83;;;14.30;98.70;;;;;;5015798;28;20469;-86
2023/05/30 06:18:18;;;;;;;12.93;3.20;;;14.30;98.80;;;;;;5020334;28;20097;-86
2023/05/30 06:20:43;;;;;;;14.32;4.10;;;14.40;98.50;;;;;;5035302;28;20097;-87
2023/05/30 06:23:09;;;;;;;17.17;3.90;;;14.50;98.30;;;;;;5021122;28;20068;-86
2023/05/30 06:25:34;;;;;;;13.95;3.85;;;14.40;98.10;;;;;;5003110;28;20057;-82
2023/05/30 06:28:00;;;;;;;19.48;4.15;;;14.40;97.90;;;;;;5008489;28;20204;-82
2023/05/30 06:30:28;;;;;;;14.60;3.70;;;14.50;97.90;;;;;;5008573;28;20030;-82
2023/05/30 06:32:53;;;;;;;15.70;3.50;;;14.50;97.70;;;;;;5014707;28;21112;-85
2023/05/30 06:35:20;;;;;;;13.70;4.25;;;14.60;97.60;;;;;;5027104;28;20022;-86
2023/05/30 06:37:45;;;;;;;20.85;3.83;;;14.60;97.50;;;;;;5014468;28;20068;-86
2023/05/30 06:40:11;;;;;;;13.48;4.90;;;14.60;97.60;;;;;;5007830;28;20252;-87
2023/05/30 06:42:39;;;;;;;10.55;3.38;;;14.70;97.60;;;;;;5008709;28;20045;-87
2023/05/30 06:45:05;;;;;;;24.40;4.05;;;14.70;97.30;;;;;;5012743;28;20819;-86
2023/05/30 06:47:33;;;;;;;14.00;3.63;;;14.70;97.20;;;;;;5022256;28;20033;-86
2023/05/30 06:49:59;;;;;;;16.20;4.50;;;14.80;96.80;;;;;;5010135;28;20045;-86
2023/05/30 06:52:25;;;;;;;18.13;4.07;;;14.80;96.80;;;;;;5014480;28;20021;-86
2023/05/30 06:54:50;;;;;;;13.20;3.85;;;14.90;96.70;;;;;;5008206;28;20068;-85
2023/05/30 06:57:18;;;;;;;13.43;3.50;;;14.80;96.90;;;;;;5013323;28;20038;-87
2023/05/30 06:59:44;;;;;;;11.52;3.88;;;15.00;96.90;;;;;;5011423;28;20029;-88
2023/05/30 07:02:10;;;;;;;13.68;3.63;;;15.10;97.00;;;;;;5007531;28;20191;-83
2023/05/30 07:04:36;;;;;;;13.82;3.72;;;15.00;96.40;;;;;;5009423;28;20442;-82
2023/05/30 07:07:02;;;;;;;13.65;3.63;;;15.10;96.30;;;;;;5010982;28;20379;-82
2023/05/30 07:09:28;;;;;;;16.35;4.28;;;15.10;96.60;;;;;;5005075;28;20057;-83
2023/05/30 07:11:55;;;;;;;10.75;3.83;;;15.20;95.80;;;;;;5009448;28;20487;-84
2023/05/30 07:14:23;;;;;;;10.57;3.80;;;15.30;96.10;;;;;;5009051;28;20108;-83
2023/05/30 07:16:49;;;;;;;12.52;4.00;;;15.40;95.90;;;;;;5008067;28;20087;-83
2023/05/30 07:19:15;;;;;;;16.65;4.32;;;15.30;95.80;;;;;;5013799;28;20021;-84
2023/05/30 07:21:40;;;;;;;19.05;4.10;;;15.40;95.60;;;;;;5013247;28;20018;-83
2023/05/30 07:24:09;;;;;;;15.45;4.70;;;15.40;95.70;;;;;;5007628;28;20082;-83
2023/05/30 07:26:35;;;;;;;21.60;4.03;;;15.40;95.10;;;;;;5012114;28;20025;-84
2023/05/30 07:29:01;;;;;;;9.60;4.15;;;15.50;95.20;;;;;;5009405;28;20049;-83
2023/05/30 07:31:26;;;;;;;16.48;4.03;;;15.70;95.20;;;;;;5017589;28;20095;-87
2023/05/30 07:33:52;;;;;;;16.00;4.55;;;15.90;95.00;;;;;;5017583;28;20009;-87
2023/05/30 07:36:18;;;;;;;16.92;4.10;;;15.70;94.70;;;;;;5033268;28;20029;-86
2023/05/30 07:38:44;;;;;;;11.73;3.67;;;15.70;94.70;;;;;;5016787;28;20785;-86
2023/05/30 07:41:09;;;;;;;11.57;3.90;;;15.70;94.40;;;;;;5015854;28;20084;-85
2023/05/30 07:43:35;;;;;;;19.25;4.40;;;15.70;94.70;;;;;;5016226;28;20120;-83
2023/05/30 07:46:03;;;;;;;14.13;4.22;;;16.00;94.80;;;;;;5011077;28;20029;-82
2023/05/30 07:48:29;;;;;;;11.57;4.40;;;16.30;94.60;;;;;;5013928;28;20359;-83
2023/05/30 07:50:54;;;;;;;12.68;3.58;;;16.60;94.30;;;;;;5012847;28;20068;-82
2023/05/30 07:53:20;;;;;;;13.50;3.92;;;17.00;93.50;;;;;;5010294;28;20080;-83
2023/05/30 07:55:46;;;;;;;15.73;4.10;;;17.50;93.20;;;;;;5011900;28;20649;-82
2023/05/30 07:58:12;;;;;;;14.15;3.53;;;17.70;91.80;;;;;;5011638;28;20589;-83
2023/05/30 08:00:37;;;;;;;12.10;3.72;;;18.10;91.60;;;;;;5007840;28;20052;-83
2023/05/30 08:03:03;;;;;;;18.05;5.10;;;18.30;90.60;;;;;;5005192;28;20567;-83
2023/05/30 08:05:31;;;;;;;12.45;4.00;;;18.50;90.00;;;;;;5013004;28;20482;-82
2023/05/30 08:07:59;;;;;;;15.00;4.05;;;18.30;90.10;;;;;;5017465;28;20069;-86
2023/05/30 08:10:24;;;;;;;11.95;4.28;;;18.20;90.50;;;;;;5014253;28;20084;-84
2023/05/30 08:12:50;;;;;;;6.93;3.85;;;18.30;90.30;;;;;;5016849;28;20018;-86
2023/05/30 08:15:16;;;;;;;15.85;4.45;;;18.70;88.80;;;;;;5017994;28;20029;-86
2023/05/30 08:17:44;;;;;;;13.57;4.30;;;19.00;88.80;;;;;;5017504;28;20116;-86
2023/05/30 08:20:12;;;;;;;14.38;4.95;;;18.90;87.80;;;;;;5006261;28;20539;-82
2023/05/30 08:22:40;;;;;;;13.55;3.97;;;18.70;88.50;;;;;;5011976;28;20025;-83
2023/05/30 08:25:10;;;;;;;10.65;4.20;;;18.70;89.80;;;;;;5013021;28;20014;-83
2023/05/30 08:27:37;;;;;;;13.73;4.53;;;19.20;89.40;;;;;;5012434;28;20026;-82
2023/05/30 08:30:04;;;;;;;12.90;4.57;;;19.60;86.80;;;;;;5005873;28;20505;-82
2023/05/30 08:32:30;;;;;;;13.75;4.68;;;20.00;85.70;;;;;;5006589;28;20076;-86
2023/05/30 08:34:56;;;;;;;11.80;5.15;;;20.10;84.60;;;;;;5010724;28;20026;-82
2023/05/30 08:37:21;;;;;;;9.98;4.43;;;20.10;84.00;;;;;;5010037;28;20085;-83
2023/05/30 08:39:47;;;;;;;18.30;4.97;;;20.40;82.60;;;;;;5012802;28;20163;-82
2023/05/30 08:42:13;;;;;;;11.35;4.57;;;20.30;81.70;;;;;;5014333;28;20035;-84
2023/05/30 08:44:39;;;;;;;12.50;4.65;;;20.30;81.70;;;;;;5007873;28;20369;-82
2023/05/30 08:47:11;;;;;;;11.73;4.93;;;19.60;80.70;;;;;;5018694;28;20032;-83
2023/05/30 08:49:42;;;;;;;10.63;4.40;;;19.30;82.80;;;;;;5030105;28;20041;-83
2023/05/30 08:52:14;;;;;;;13.60;5.25;;;19.40;83.00;;;;;;5020046;28;20029;-85
2023/05/30 08:54:48;;;;;;;17.30;4.60;;;19.70;82.10;;;;;;5011658;28;20049;-85
2023/05/30 08:57:25;;;;;;;12.10;4.50;;;20.20;81.80;;;;;;5014439;28;20144;-82
2023/05/30 08:59:53;;;;;;;12.55;4.60;;;20.50;81.20;;;;;;5008269;28;20030;-82
2023/05/30 09:02:20;;;;;;;10.75;4.57;;;20.70;79.40;;;;;;5010805;28;20049;-84
2023/05/30 09:04:50;;;;;;;9.63;4.22;;;21.00;79.50;;;;;;5011935;28;20070;-83
2023/05/30 09:07:17;;;;;;;16.15;4.63;;;21.30;76.10;;;;;;5011792;28;20072;-83
2023/05/30 09:09:44;;;;;;;10.00;4.00;;;21.50;76.60;;;;;;5005329;28;20065;-83
2023/05/30 09:12:10;;;;;;;12.38;5.25;;;21.50;76.40;;;;;;5011199;28;20708;-83
2023/05/30 09:14:38;;;;;;;11.35;5.18;;;21.60;76.30;;;;;;5012947;28;20014;-83
2023/05/30 09:17:04;;;;;;;15.60;4.45;;;21.60;73.60;;;;;;5010732;28;20021;-82
2023/05/30 09:19:30;;;;;;;11.27;4.30;;;21.70;74.10;;;;;;5013666;28;20026;-82
2023/05/30 09:21:56;;;;;;;17.83;5.70;;;21.80;73.90;;;;;;5010608;28;20028;-83
2023/05/30 09:24:22;;;;;;;11.23;4.80;;;21.80;73.60;;;;;;5011698;28;20029;-83
2023/05/30 09:27:07;;;;;;;10.48;5.00;;;21.80;73.00;;;;;;5013238;28;20033;-83
2023/05/30 09:29:42;;;;;;;11.75;4.50;;;21.80;72.80;;;;;;5012020;28;20171;-84
2023/05/30 09:32:09;;;;;;;16.70;4.60;;;21.70;73.30;;;;;;5004476;28;20030;-82
2023/05/30 09:34:35;;;;;;;10.02;4.32;;;22.00;72.80;;;;;;5009087;28;20021;-83
2023/05/30 09:37:06;;;;;;;16.27;5.00;;;22.30;72.00;;;;;;5009938;28;20111;-82
2023/05/30 09:39:32;;;;;;;14.35;4.72;;;22.40;72.40;;;;;;5009611;28;20033;-82
2023/05/30 09:41:58;;;;;;;12.27;5.35;;;22.50;71.10;;;;;;5009046;28;20036;-83
2023/05/30 09:44:24;;;;;;;15.77;4.65;;;22.70;69.90;;;;;;5006563;28;20630;-82
2023/05/30 09:46:57;;;;;;;12.68;5.15;;;22.80;69.20;;;;;;5009836;28;20139;-84
2023/05/30 09:49:23;;;;;;;14.60;5.22;;;22.70;72.40;;;;;;5009906;28;20025;-83
2023/05/30 09:51:52;;;;;;;12.57;4.50;;;22.90;71.20;;;;;;5131158;22;20534;-86
2023/05/30 09:54:19;;;;;;;13.40;5.63;;;23.20;69.00;;;;;;4989044;28;20386;-85
2023/05/30 09:56:47;;;;;;;17.52;5.30;;;23.10;70.10;;;;;;4991333;28;20682;-85
2023/05/30 09:59:14;;;;;;;14.10;4.90;;;23.20;68.90;;;;;;4987674;28;20222;-86
2023/05/30 10:01:45;;;;;;;10.13;4.40;;;23.30;66.50;;;;;;4993030;28;20050;-86
2023/05/30 10:04:24;;;;;;;9.85;4.38;;;23.40;64.90;;;;;;4989454;28;20435;-85
2023/05/30 10:06:54;;;;;;;12.00;4.38;;;23.50;64.60;;;;;;4987644;28;20030;-83
2023/05/30 10:09:24;;;;;;;11.13;4.55;;;23.80;64.80;;;;;;4989942;28;20145;-84
2023/05/30 10:11:50;;;;;;;13.23;5.18;;;24.00;62.70;;;;;;4987599;28;20301;-84
2023/05/30 10:14:19;;;;;;;10.45;4.85;;;24.10;62.90;;;;;;4984637;28;20026;-83
2023/05/30 10:17:08;;;;;;;16.75;6.90;;;24.50;61.80;;;;;;4987629;28;20033;-83
2023/05/30 10:19:56;;;;;;;10.57;4.57;;;24.90;61.90;;;;;;4985811;28;20034;-83
2023/05/30 10:22:27;;;;;;;12.50;4.60;;;25.10;60.40;;;;;;4986589;28;20018;-83
2023/05/30 10:24:57;;;;;;;9.23;4.50;;;25.30;61.20;;;;;;4986647;28;20081;-84
2023/05/30 10:27:29;;;;;;;14.60;5.13;;;25.10;59.70;;;;;;4990931;28;20890;-82
2023/05/30 10:30:05;;;;;;;12.32;4.85;;;25.20;59.30;;;;;;4987268;28;20984;-84
2023/05/30 10:32:35;;;;;;;12.82;4.70;;;24.90;59.80;;;;;;5004993;28;20034;-84
2023/05/30 10:35:13;;;;;;;11.65;4.30;;;24.80;59.70;;;;;;4989954;28;20081;-83
2023/05/30 10:37:39;;;;;;;10.82;4.47;;;24.70;60.60;;;;;;4987208;28;20026;-83
2023/05/30 10:40:16;;;;;;;112.60;55.80;;;24.80;60.70;;;;;;4983779;28;20085;-83
2023/05/30 10:42:46;;;;;;;25.23;11.68;;;24.90;62.00;;;;;;4988773;28;20037;-83
2023/05/30 10:45:25;;;;;;;15.25;4.80;;;25.10;60.60;;;;;;4989148;28;20022;-82
2023/05/30 10:48:16;;;;;;;13.20;4.75;;;25.50;61.20;;;;;;4986127;28;20065;-83
2023/05/30 10:50:50;;;;;;;11.25;4.03;;;25.60;59.60;;;;;;4984015;28;20413;-82
2023/05/30 10:53:20;;;;;;;16.83;4.35;;;25.90;60.70;;;;;;4985588;28;20061;-82
2023/05/30 10:55:47;;;;;;;15.10;4.00;;;26.50;61.00;;;;;;4986608;28;20100;-82
2023/05/30 10:58:41;;;;;;;15.38;4.70;;;27.00;58.30;;;;;;4998402;28;20032;-83
2023/05/30 11:01:30;;;;;;;10.95;4.70;;;26.70;57.60;;;;;;4989413;28;20424;-82
2023/05/30 11:04:11;;;;;;;12.05;4.88;;;26.60;58.70;;;;;;4983111;28;20083;-82
2023/05/30 11:06:45;;;;;;;11.85;4.65;;;26.50;58.10;;;;;;4981644;28;20404;-83
2023/05/30 11:09:15;;;;;;;12.48;4.78;;;25.90;58.30;;;;;;4984548;28;20042;-83
2023/05/30 11:11:46;;;;;;;17.92;5.20;;;25.80;58.50;;;;;;4985049;28;20026;-84
2023/05/30 11:14:13;;;;;;;13.82;4.35;;;25.90;58.50;;;;;;4981571;28;20018;-81
2023/05/30 11:16:54;;;;;;;87.78;36.85;;;25.60;59.80;;;;;;4985315;28;20022;-83
2023/05/30 11:19:24;;;;;;;16.50;6.93;;;25.50;59.70;;;;;;4988609;28;20057;-82
2023/05/30 11:22:00;;;;;;;12.40;4.53;;;25.60;59.90;;;;;;4983192;28;20034;-83
2023/05/30 11:24:28;;;;;;;13.95;4.50;;;25.70;59.80;;;;;;4984909;28;20026;-81
2023/05/30 11:27:07;;;;;;;13.68;4.80;;;25.60;59.40;;;;;;4987449;28;20080;-80
2023/05/30 11:29:36;;;;;;;9.75;4.88;;;25.30;60.10;;;;;;4986245;28;20038;-82
2023/05/30 11:32:05;;;;;;;10.68;4.45;;;25.60;60.90;;;;;;4985120;28;20034;-85
2023/05/30 11:34:30;;;;;;;11.07;4.32;;;25.60;60.10;;;;;;4985855;28;20140;-84
2023/05/30 11:36:57;;;;;;;10.82;4.90;;;25.60;61.20;;;;;;4984880;28;20018;-83
2023/05/30 11:39:22;;;;;;;14.27;4.20;;;25.40;60.90;;;;;;5140497;22;20053;-77
2023/05/30 11:41:48;;;;;;;10.07;4.15;;;25.60;61.20;;;;;;5009101;28;20048;-76
2023/05/30 11:44:20;;;;;;;11.15;4.28;;;25.80;60.30;;;;;;5010226;28;20160;-79
2023/05/30 11:46:59;;;;;;;102.72;45.10;;;25.90;59.40;;;;;;5009964;28;20018;-81
2023/05/30 11:49:25;;;;;;;12.80;4.05;;;26.10;59.40;;;;;;5009694;28;20035;-78
2023/05/30 11:51:52;;;;;;;12.23;4.60;;;25.80;59.30;;;;;;5010577;28;20047;-79
2023/05/30 11:54:18;;;;;;;11.20;4.30;;;26.20;58.70;;;;;;5004691;28;20168;-79
2023/05/30 11:56:44;;;;;;;12.07;4.55;;;26.20;58.70;;;;;;5009306;28;20124;-78
2023/05/30 11:59:15;;;;;;;10.50;4.47;;;26.50;59.00;;;;;;5016736;28;20079;-80
2023/05/30 12:01:41;;;;;;;12.88;4.63;;;26.60;59.70;;;;;;5009482;28;20030;-82
2023/05/30 12:04:06;;;;;;;15.05;4.45;;;26.70;58.80;;;;;;5008877;28;20022;-82
2023/05/30 12:06:33;;;;;;;10.50;4.55;;;26.70;58.70;;;;;;5011469;28;20017;-82
2023/05/30 12:09:00;;;;;;;7.93;4.32;;;26.80;58.40;;;;;;5013097;28;20036;-81
2023/05/30 12:11:26;;;;;;;17.75;4.40;;;26.70;58.20;;;;;;5149145;22;20191;-83
2023/05/30 12:13:55;;;;;;;11.70;4.63;;;26.50;59.30;;;;;;5015566;28;20116;-80
2023/05/30 12:16:20;;;;;;;8.20;4.03;;;26.70;58.40;;;;;;5015162;28;20026;-83
2023/05/30 12:18:46;;;;;;;11.50;4.13;;;26.60;59.00;;;;;;5012108;28;20087;-79
2023/05/30 12:21:12;;;;;;;10.82;4.32;;;26.60;58.10;;;;;;5012122;28;20057;-85
2023/05/30 12:23:42;;;;;;;14.05;4.45;;;26.40;58.00;;;;;;5015604;28;20636;-80
2023/05/30 12:26:16;;;;;;;75.28;31.60;;;26.60;59.50;;;;;;5010555;28;20393;-80
2023/05/30 12:28:46;;;;;;;8.88;4.20;;;26.70;58.00;;;;;;5010014;28;20072;-80
2023/05/30 12:31:22;;;;;;;10.10;4.18;;;26.30;58.90;;;;;;5010515;28;20553;-80
2023/05/30 12:33:47;;;;;;;11.70;4.82;;;26.30;58.40;;;;;;5009542;28;20108;-81
2023/05/30 12:36:13;;;;;;;12.35;4.00;;;26.20;58.50;;;;;;5014996;28;20125;-81
2023/05/30 12:38:39;;;;;;;9.77;3.53;;;26.70;58.90;;;;;;5014516;28;20694;-81
2023/05/30 12:41:08;;;;;;;9.45;3.88;;;26.70;59.00;;;;;;5012100;28;20537;-80
2023/05/30 12:43:33;;;;;;;11.13;4.03;;;26.60;58.10;;;;;;5011249;28;20018;-80
2023/05/30 12:46:08;;;;;;;51.65;24.13;;;26.70;58.80;;;;;;5016956;28;20033;-80